Time;durP1;ratioP1;P1;durP2;ratioP2;P2;SDS_P1;SDS_P2;PMS_P1;PMS_P2;Temp;Humidity;BMP_temperature;BMP_pressure;BME280_temperature;BME280_humidity;BME280_pressure;Samples;Min_cycle;Max_cycle;Signal;HPM_P1;HPM_P2
2022/04/25 00:00:55;;;;;;;18.42;10.52;;;;;;;;;;5053747;28;20048;-61
2022/04/25 00:03:21;;;;;;;18.30;10.13;;;;;;;;;;5035436;28;20487;-62
2022/04/25 00:05:47;;;;;;;17.98;10.27;;;;;;;;;;5050917;28;20106;-62
2022/04/25 00:08:13;;;;;;;17.48;10.05;;;;;;;;;;5052868;28;20116;-62
2022/04/25 00:10:39;;;;;;;17.13;10.52;;;;;;;;;;5053634;28;20111;-62
2022/04/25 00:13:06;;;;;;;19.50;12.10;;;;;;;;;;5053129;28;20103;-62
2022/04/25 00:15:31;;;;;;;17.13;10.80;;;;;;;;;;5053211;28;20580;-61
2022/04/25 00:17:57;;;;;;;18.63;11.23;;;;;;;;;;5053096;28;20037;-62
2022/04/25 00:20:23;;;;;;;18.83;12.05;;;;;;;;;;5052219;28;20488;-61
2022/04/25 00:22:49;;;;;;;17.05;11.20;;;;;;;;;;5052897;28;20037;-61
2022/04/25 00:25:15;;;;;;;22.77;12.57;;;;;;;;;;5053064;28;20037;-62
2022/04/25 00:27:41;;;;;;;16.83;11.32;;;;;;;;;;5052976;28;20033;-62
2022/04/25 00:30:08;;;;;;;21.23;11.77;;;;;;;;;;5052680;28;20087;-61
2022/04/25 00:32:34;;;;;;;17.38;11.90;;;;;;;;;;5052673;28;20045;-62
2022/04/25 00:35:00;;;;;;;19.52;11.85;;;;;;;;;;5051239;28;20106;-62
2022/04/25 00:37:26;;;;;;;18.23;11.68;;;;;;;;;;5051560;28;20047;-61
2022/04/25 00:39:52;;;;;;;19.95;12.02;;;;;;;;;;5053019;28;20040;-61
2022/04/25 00:42:17;;;;;;;19.08;12.68;;;;;;;;;;5033310;28;20025;-62
2022/04/25 00:44:43;;;;;;;19.75;12.35;;;;;;;;;;5065596;22;20091;-62
2022/04/25 00:47:10;;;;;;;20.08;12.50;;;;;;;;;;5066648;28;20032;-62
2022/04/25 00:49:36;;;;;;;24.10;12.38;;;;;;;;;;5064618;28;20060;-62
2022/04/25 00:52:02;;;;;;;18.80;12.13;;;;;;;;;;5060469;28;20032;-62
2022/04/25 00:54:31;;;;;;;17.77;11.75;;;;;;;;;;5051938;28;20506;-62
2022/04/25 00:56:57;;;;;;;22.80;13.45;;;;;;;;;;5052704;28;20592;-62
2022/04/25 00:59:24;;;;;;;19.35;12.70;;;;;;;;;;5052261;28;20060;-62
2022/04/25 01:01:51;;;;;;;23.30;13.10;;;;;;;;;;5052098;28;20037;-62
2022/04/25 01:04:17;;;;;;;23.48;12.80;;;;;;;;;;5051847;28;20059;-62
2022/04/25 01:06:43;;;;;;;22.95;14.02;;;;;;;;;;5059033;28;20033;-62
2022/04/25 01:09:09;;;;;;;25.10;13.55;;;;;;;;;;5051861;28;20072;-62
2022/04/25 01:11:35;;;;;;;22.77;13.88;;;;;;;;;;5052361;28;20064;-63
2022/04/25 01:14:11;;;;;;;25.20;14.10;;;;;;;;;;5051730;28;20048;-62
2022/04/25 01:16:37;;;;;;;26.02;14.65;;;;;;;;;;5034379;28;20040;-62
2022/04/25 01:19:03;;;;;;;22.73;13.88;;;;;;;;;;5050631;28;20041;-62
2022/04/25 01:21:30;;;;;;;24.40;14.32;;;;;;;;;;5063894;28;20490;-62
2022/04/25 01:29:26;;;;;;;23.35;13.82;;;;;;;;;;5031644;28;20049;-62
2022/04/25 01:31:52;;;;;;;20.35;14.32;;;;;;;;;;5032249;28;20043;-62
2022/04/25 01:34:18;;;;;;;25.70;14.63;;;;;;;;;;5039551;28;20112;-62
2022/04/25 01:36:44;;;;;;;24.42;14.77;;;;;;;;;;5063596;28;20082;-62
2022/04/25 01:39:10;;;;;;;24.00;14.27;;;;;;;;;;5071465;28;20040;-62
2022/04/25 01:41:36;;;;;;;28.00;14.52;;;;;;;;;;5071874;28;20032;-62
2022/04/25 01:44:02;;;;;;;24.02;14.18;;;;;;;;;;5051071;28;20036;-62
2022/04/25 01:46:28;;;;;;;25.67;14.10;;;;;;;;;;5050073;28;20033;-62
2022/04/25 01:48:54;;;;;;;28.60;14.73;;;;;;;;;;5059364;28;20033;-62
2022/04/25 01:51:20;;;;;;;24.98;14.02;;;;;;;;;;5051807;28;20384;-62
2022/04/25 01:53:46;;;;;;;24.95;14.05;;;;;;;;;;5051529;28;20048;-62
2022/04/25 01:56:12;;;;;;;26.00;14.52;;;;;;;;;;5051639;28;20037;-62
2022/04/25 01:58:38;;;;;;;25.17;14.52;;;;;;;;;;5051184;28;20052;-62
2022/04/25 02:01:06;;;;;;;27.45;14.60;;;;;;;;;;5049175;28;20410;-62
2022/04/25 02:03:34;;;;;;;25.20;13.77;;;;;;;;;;5049328;28;20073;-63
2022/04/25 02:06:01;;;;;;;25.00;14.27;;;;;;;;;;5049300;28;20052;-63
2022/04/25 02:08:27;;;;;;;25.38;14.40;;;;;;;;;;5051346;28;20119;-63
2022/04/25 02:13:37;;;;;;;23.95;14.10;;;;;;;;;;5051493;28;20087;-62
2022/04/25 02:16:04;;;;;;;27.92;15.77;;;;;;;;;;5050825;28;20116;-62
2022/04/25 02:18:30;;;;;;;24.85;14.88;;;;;;;;;;5063015;28;20041;-62
2022/04/25 02:20:56;;;;;;;23.02;14.60;;;;;;;;;;5071550;28;20043;-62
2022/04/25 02:23:22;;;;;;;25.70;15.10;;;;;;;;;;5071271;28;20036;-63
2022/04/25 02:25:48;;;;;;;27.88;14.57;;;;;;;;;;5071158;28;20068;-62
2022/04/25 02:28:14;;;;;;;24.52;14.13;;;;;;;;;;5053048;28;20160;-62
2022/04/25 02:30:40;;;;;;;21.50;13.82;;;;;;;;;;5062948;28;20044;-62
2022/04/25 02:33:06;;;;;;;27.63;14.25;;;;;;;;;;5062386;28;20047;-62
2022/04/25 02:35:32;;;;;;;22.25;13.90;;;;;;;;;;5071885;28;20047;-62
2022/04/25 02:37:58;;;;;;;26.13;13.88;;;;;;;;;;5074813;28;20086;-63
2022/04/25 02:40:24;;;;;;;22.38;14.30;;;;;;;;;;5075312;28;20032;-63
2022/04/25 02:42:50;;;;;;;21.45;13.23;;;;;;;;;;5047172;28;20052;-62
2022/04/25 02:45:16;;;;;;;24.67;14.68;;;;;;;;;;5061497;28;20036;-63
2022/04/25 02:47:42;;;;;;;28.00;14.48;;;;;;;;;;5054672;28;20554;-63
2022/04/25 02:50:08;;;;;;;23.90;14.50;;;;;;;;;;5054621;28;20406;-62
2022/04/25 02:52:34;;;;;;;21.35;14.07;;;;;;;;;;5054817;28;20405;-62
2022/04/25 02:55:00;;;;;;;26.48;14.50;;;;;;;;;;5054597;28;20048;-63
2022/04/25 02:57:26;;;;;;;26.00;13.90;;;;;;;;;;5054771;28;20199;-63
2022/04/25 02:59:52;;;;;;;24.10;14.50;;;;;;;;;;5060294;28;20029;-62
2022/04/25 03:02:18;;;;;;;23.17;12.98;;;;;;;;;;5066389;28;20033;-62
2022/04/25 03:04:44;;;;;;;25.77;12.88;;;;;;;;;;5074075;28;20414;-63
2022/04/25 03:07:10;;;;;;;29.90;12.98;;;;;;;;;;5074019;28;20064;-62
2022/04/25 03:09:36;;;;;;;21.73;12.93;;;;;;;;;;5074277;28;20116;-62
2022/04/25 03:12:03;;;;;;;19.80;12.05;;;;;;;;;;5074763;28;20048;-63
2022/04/25 03:14:29;;;;;;;25.52;13.45;;;;;;;;;;5067460;28;20080;-62
2022/04/25 03:16:55;;;;;;;25.52;13.38;;;;;;;;;;5053844;28;20064;-63
2022/04/25 03:19:20;;;;;;;26.70;12.57;;;;;;;;;;5053884;28;20048;-63
2022/04/25 03:21:46;;;;;;;23.85;13.00;;;;;;;;;;5054257;28;20660;-63
2022/04/25 03:24:12;;;;;;;25.00;12.90;;;;;;;;;;5054433;28;20045;-62
2022/04/25 03:26:39;;;;;;;25.58;13.57;;;;;;;;;;5054367;28;20048;-63
2022/04/25 03:29:06;;;;;;;23.20;12.73;;;;;;;;;;5062031;28;20036;-62
2022/04/25 03:31:32;;;;;;;24.15;12.75;;;;;;;;;;5053859;28;20045;-63
2022/04/25 03:33:58;;;;;;;22.60;12.70;;;;;;;;;;5053894;28;20037;-62
2022/04/25 03:36:24;;;;;;;25.40;13.18;;;;;;;;;;5053690;28;20037;-62
2022/04/25 03:38:52;;;;;;;23.67;13.02;;;;;;;;;;5054018;28;20076;-62
2022/04/25 03:41:18;;;;;;;22.33;12.95;;;;;;;;;;5053548;28;20052;-63
2022/04/25 03:43:44;;;;;;;24.75;12.65;;;;;;;;;;5054245;28;20045;-63
2022/04/25 03:46:12;;;;;;;24.77;12.10;;;;;;;;;;5062265;28;20124;-62
2022/04/25 03:48:43;;;;;;;24.85;13.48;;;;;;;;;;5073715;28;20076;-63
2022/04/25 03:51:09;;;;;;;24.95;12.95;;;;;;;;;;5073808;28;20103;-62
2022/04/25 03:53:38;;;;;;;22.27;12.57;;;;;;;;;;5073846;28;20495;-62
2022/04/25 03:58:49;;;;;;;23.00;12.40;;;;;;;;;;5056392;28;20037;-63
2022/04/25 04:01:14;;;;;;;22.73;12.88;;;;;;;;;;5045659;28;20569;-62
2022/04/25 04:03:40;;;;;;;24.88;13.98;;;;;;;;;;5053131;28;20044;-63
2022/04/25 04:06:09;;;;;;;23.75;13.27;;;;;;;;;;5051840;28;20083;-63
2022/04/25 04:08:35;;;;;;;24.38;13.13;;;;;;;;;;5053160;28;20045;-62
2022/04/25 04:11:01;;;;;;;22.70;13.45;;;;;;;;;;5051367;28;20059;-62
2022/04/25 04:13:27;;;;;;;23.30;12.05;;;;;;;;;;5064276;28;20498;-62
2022/04/25 04:15:53;;;;;;;20.80;12.90;;;;;;;;;;5072839;28;20040;-62
2022/04/25 04:18:20;;;;;;;25.50;14.07;;;;;;;;;;5055140;28;20044;-63
2022/04/25 04:20:46;;;;;;;23.92;14.10;;;;;;;;;;5073435;28;20036;-63
2022/04/25 04:23:12;;;;;;;22.33;13.23;;;;;;;;;;5072912;28;20036;-62
2022/04/25 04:25:38;;;;;;;23.40;14.00;;;;;;;;;;5069960;28;20072;-63
2022/04/25 04:28:06;;;;;;;27.70;14.25;;;;;;;;;;5064573;28;20048;-62
2022/04/25 04:30:33;;;;;;;27.95;14.55;;;;;;;;;;5072860;28;20414;-63
2022/04/25 04:32:59;;;;;;;23.35;13.00;;;;;;;;;;5072897;28;20054;-63
2022/04/25 04:38:10;;;;;;;21.63;12.95;;;;;;;;;;5072385;28;20044;-62
2022/04/25 04:40:36;;;;;;;20.52;12.90;;;;;;;;;;5067858;28;20055;-62
2022/04/25 04:43:03;;;;;;;24.80;14.00;;;;;;;;;;5046530;28;20061;-62
2022/04/25 04:45:30;;;;;;;26.02;13.00;;;;;;;;;;5072504;28;20098;-62
2022/04/25 04:47:56;;;;;;;19.98;13.27;;;;;;;;;;5072268;28;20227;-63
2022/04/25 04:50:22;;;;;;;22.35;12.77;;;;;;;;;;5054368;28;20539;-63
2022/04/25 04:52:49;;;;;;;23.60;12.85;;;;;;;;;;5072639;28;20048;-63
2022/04/25 04:55:15;;;;;;;25.25;13.25;;;;;;;;;;5066953;28;20041;-62
2022/04/25 04:57:41;;;;;;;23.25;12.18;;;;;;;;;;5051595;28;20380;-63
2022/04/25 05:00:09;;;;;;;23.25;13.48;;;;;;;;;;5052095;28;20145;-62
2022/04/25 05:02:35;;;;;;;24.35;12.65;;;;;;;;;;5052237;28;20141;-63
2022/04/25 05:05:01;;;;;;;23.02;13.27;;;;;;;;;;5052170;28;20063;-63
2022/04/25 05:07:27;;;;;;;21.50;12.82;;;;;;;;;;5052077;28;20146;-63
2022/04/25 05:09:53;;;;;;;24.83;13.40;;;;;;;;;;5057763;28;20040;-62
2022/04/25 05:12:20;;;;;;;23.70;13.25;;;;;;;;;;5063284;28;20098;-62
2022/04/25 05:14:46;;;;;;;26.05;12.40;;;;;;;;;;5072042;28;20128;-62
2022/04/25 05:17:12;;;;;;;25.17;12.88;;;;;;;;;;5072117;28;20036;-63
2022/04/25 05:19:38;;;;;;;20.50;12.95;;;;;;;;;;5053785;28;20048;-62
2022/04/25 05:22:04;;;;;;;21.13;13.02;;;;;;;;;;5071926;28;20044;-62
2022/04/25 05:24:30;;;;;;;21.98;12.40;;;;;;;;;;5063599;28;20072;-62
2022/04/25 05:26:56;;;;;;;25.40;12.55;;;;;;;;;;5051759;28;20078;-63
2022/04/25 05:29:22;;;;;;;23.50;12.60;;;;;;;;;;5051958;28;20120;-63
2022/04/25 05:31:49;;;;;;;22.92;13.02;;;;;;;;;;5052129;28;20148;-63
2022/04/25 05:34:15;;;;;;;21.40;12.43;;;;;;;;;;5051938;28;20084;-62
2022/04/25 05:36:42;;;;;;;24.58;13.20;;;;;;;;;;5051833;28;20040;-63
2022/04/25 05:39:08;;;;;;;25.88;12.15;;;;;;;;;;5058591;28;20485;-62
2022/04/25 05:41:35;;;;;;;23.55;12.73;;;;;;;;;;5051625;28;20041;-63
2022/04/25 05:44:03;;;;;;;17.58;11.20;;;;;;;;;;5051766;28;20044;-63
2022/04/25 05:46:29;;;;;;;23.20;12.30;;;;;;;;;;5051446;28;20041;-62
2022/04/25 05:54:24;;;;;;;19.33;12.68;;;;;;;;;;5062050;28;20558;-63
2022/04/25 05:56:50;;;;;;;20.85;11.82;;;;;;;;;;5071504;28;20104;-62
2022/04/25 05:59:16;;;;;;;22.98;12.02;;;;;;;;;;5071530;28;20622;-63
2022/04/25 06:01:42;;;;;;;27.10;12.00;;;;;;;;;;5071273;28;20131;-63
2022/04/25 06:04:08;;;;;;;23.65;12.73;;;;;;;;;;5071570;28;20117;-63
2022/04/25 06:06:34;;;;;;;26.50;12.35;;;;;;;;;;5067079;28;20123;-63
2022/04/25 06:09:01;;;;;;;23.27;11.75;;;;;;;;;;5059689;28;20083;-63
2022/04/25 06:11:26;;;;;;;22.17;12.50;;;;;;;;;;5074911;28;20056;-63
2022/04/25 06:13:53;;;;;;;23.77;11.68;;;;;;;;;;5075673;28;20418;-63
2022/04/25 06:16:19;;;;;;;22.25;12.18;;;;;;;;;;5075567;28;20406;-63
2022/04/25 06:18:45;;;;;;;21.70;11.95;;;;;;;;;;5074916;28;20040;-63
2022/04/25 06:21:11;;;;;;;20.65;11.63;;;;;;;;;;5070141;28;20090;-63
2022/04/25 06:23:37;;;;;;;21.30;12.27;;;;;;;;;;5067194;28;20076;-63
2022/04/25 06:26:03;;;;;;;23.15;11.93;;;;;;;;;;5075047;28;20079;-63
2022/04/25 06:28:29;;;;;;;20.98;11.80;;;;;;;;;;5057190;28;20406;-63
2022/04/25 06:30:55;;;;;;;24.38;12.93;;;;;;;;;;5075044;28;20780;-62
2022/04/25 06:33:21;;;;;;;21.92;12.18;;;;;;;;;;5075118;28;20036;-62
2022/04/25 06:35:49;;;;;;;22.00;12.35;;;;;;;;;;5069376;28;20529;-63
2022/04/25 06:38:18;;;;;;;24.10;12.35;;;;;;;;;;5065043;28;20044;-63
2022/04/25 06:40:44;;;;;;;26.77;13.00;;;;;;;;;;5075259;28;20130;-63
2022/04/25 06:43:10;;;;;;;24.45;12.57;;;;;;;;;;5062515;28;20091;-63
2022/04/25 06:45:36;;;;;;;23.83;13.75;;;;;;;;;;5054958;28;20045;-63
2022/04/25 06:48:02;;;;;;;24.05;12.73;;;;;;;;;;5054478;28;20047;-63
2022/04/25 06:50:28;;;;;;;29.10;13.00;;;;;;;;;;5050302;28;20041;-63
2022/04/25 06:52:54;;;;;;;23.65;13.15;;;;;;;;;;5062840;28;20036;-62
2022/04/25 06:55:20;;;;;;;26.50;13.63;;;;;;;;;;5054913;28;20047;-62
2022/04/25 06:57:47;;;;;;;26.27;13.55;;;;;;;;;;5054609;28;20111;-63
2022/04/25 07:00:17;;;;;;;22.38;12.00;;;;;;;;;;5054438;28;20040;-63
2022/04/25 07:02:47;;;;;;;25.30;13.73;;;;;;;;;;5054234;28;20047;-62
2022/04/25 07:05:13;;;;;;;31.27;13.95;;;;;;;;;;5061294;28;20048;-62
2022/04/25 07:07:39;;;;;;;25.88;14.20;;;;;;;;;;5053998;28;20094;-63
2022/04/25 07:10:06;;;;;;;24.75;13.40;;;;;;;;;;5054791;28;20094;-63
2022/04/25 07:12:32;;;;;;;23.58;13.57;;;;;;;;;;5054251;28;20073;-63
2022/04/25 07:14:59;;;;;;;24.92;13.27;;;;;;;;;;5054390;28;20041;-62
2022/04/25 07:17:25;;;;;;;24.83;13.10;;;;;;;;;;5054044;28;20037;-63
2022/04/25 07:19:51;;;;;;;21.42;13.43;;;;;;;;;;5059583;28;20452;-63
2022/04/25 07:30:34;;;;;;;29.05;14.82;;;;;;;;;;5074439;28;20045;-63
2022/04/25 07:33:00;;;;;;;30.77;15.63;;;;;;;;;;5070049;28;20045;-63
2022/04/25 07:35:26;;;;;;;31.35;15.45;;;;;;;;;;5065468;28;20127;-63
2022/04/25 07:37:52;;;;;;;27.23;15.55;;;;;;;;;;5073783;28;20051;-63
2022/04/25 07:40:18;;;;;;;27.05;14.90;;;;;;;;;;5073964;28;20036;-63
2022/04/25 07:42:44;;;;;;;28.90;16.33;;;;;;;;;;5064661;28;20037;-62
2022/04/25 07:45:10;;;;;;;25.33;13.95;;;;;;;;;;5053850;28;20041;-63
2022/04/25 07:47:36;;;;;;;27.23;14.23;;;;;;;;;;5052504;28;20048;-63
2022/04/25 07:50:03;;;;;;;26.50;15.15;;;;;;;;;;5061507;28;20037;-62
2022/04/25 07:52:29;;;;;;;27.25;14.07;;;;;;;;;;5073481;28;20037;-63
2022/04/25 07:54:56;;;;;;;27.05;15.50;;;;;;;;;;5073574;28;20074;-63
2022/04/25 07:57:22;;;;;;;26.30;14.52;;;;;;;;;;5073692;28;20078;-63
2022/04/25 07:59:48;;;;;;;25.63;15.77;;;;;;;;;;5055987;28;20082;-63
2022/04/25 08:02:17;;;;;;;27.83;15.02;;;;;;;;;;5065537;28;20033;-63
2022/04/25 08:04:44;;;;;;;28.02;15.80;;;;;;;;;;5059900;28;20041;-62
2022/04/25 08:07:11;;;;;;;30.85;15.55;;;;;;;;;;5053065;28;20506;-63
2022/04/25 08:09:37;;;;;;;28.52;15.45;;;;;;;;;;5053395;28;20397;-63
2022/04/25 08:20:17;;;;;;;28.95;15.25;;;;;;;;;;5065168;28;20044;-63
2022/04/25 08:22:45;;;;;;;23.02;13.43;;;;;;;;;;5072508;28;20028;-62
2022/04/25 08:25:11;;;;;;;26.90;13.63;;;;;;;;;;5073205;28;20048;-63
2022/04/25 08:27:38;;;;;;;26.45;15.23;;;;;;;;;;5054557;28;20052;-63
2022/04/25 08:30:04;;;;;;;29.40;14.32;;;;;;;;;;5073088;28;20045;-62
2022/04/25 08:32:33;;;;;;;26.33;15.50;;;;;;;;;;5061977;28;20044;-63
2022/04/25 08:35:01;;;;;;;27.40;16.05;;;;;;;;;;5064144;28;20045;-63
2022/04/25 08:37:26;;;;;;;29.00;13.98;;;;;;;;;;5072757;28;20040;-63
2022/04/25 08:39:52;;;;;;;27.17;15.07;;;;;;;;;;5071969;28;20123;-63
2022/04/25 08:42:20;;;;;;;29.58;14.40;;;;;;;;;;5067037;28;20051;-63
2022/04/25 08:44:49;;;;;;;25.38;14.38;;;;;;;;;;5052443;28;20049;-63
2022/04/25 08:47:15;;;;;;;28.42;14.60;;;;;;;;;;5059512;28;20040;-62
2022/04/25 08:49:41;;;;;;;30.92;14.13;;;;;;;;;;5052227;28;20040;-63
2022/04/25 08:52:08;;;;;;;29.30;16.17;;;;;;;;;;5051619;28;20044;-62
2022/04/25 08:54:35;;;;;;;25.40;14.57;;;;;;;;;;5063017;28;20060;-62
2022/04/25 08:57:02;;;;;;;26.90;14.73;;;;;;;;;;5063667;28;20039;-63
2022/04/25 08:59:30;;;;;;;26.20;14.82;;;;;;;;;;5071897;28;20130;-63
2022/04/25 09:01:57;;;;;;;25.40;14.15;;;;;;;;;;5072553;28;20076;-63
2022/04/25 09:04:23;;;;;;;27.73;14.80;;;;;;;;;;5072330;28;20051;-63
2022/04/25 09:06:51;;;;;;;29.27;14.40;;;;;;;;;;5063858;28;20033;-63
2022/04/25 09:09:17;;;;;;;30.23;14.60;;;;;;;;;;5061833;28;20047;-63
2022/04/25 09:14:28;;;;;;;26.98;13.77;;;;;;;;;;5071738;28;20120;-63
2022/04/25 09:16:54;;;;;;;26.40;14.55;;;;;;;;;;5072156;28;20462;-62
2022/04/25 09:19:20;;;;;;;25.75;14.20;;;;;;;;;;5071538;28;20040;-63
2022/04/25 09:21:46;;;;;;;22.63;12.77;;;;;;;;;;5067352;28;20101;-62
2022/04/25 09:24:21;;;;;;;24.70;13.88;;;;;;;;;;5045550;28;20043;-62
2022/04/25 09:26:48;;;;;;;26.10;15.25;;;;;;;;;;5054211;28;20490;-63
2022/04/25 09:29:14;;;;;;;27.13;14.23;;;;;;;;;;5071714;28;20406;-63
2022/04/25 09:31:48;;;;;;;21.00;13.23;;;;;;;;;;5072087;28;20085;-63
2022/04/25 09:34:15;;;;;;;23.65;13.52;;;;;;;;;;5071897;28;20049;-63
2022/04/25 09:36:48;;;;;;;22.15;13.25;;;;;;;;;;5045970;28;20049;-63
2022/04/25 09:39:30;;;;;;;20.27;11.90;;;;;;;;;;5051380;28;20044;-62
2022/04/25 09:41:57;;;;;;;22.50;12.35;;;;;;;;;;5051722;28;20399;-62
2022/04/25 09:44:23;;;;;;;21.33;10.77;;;;;;;;;;5051303;28;20041;-63
2022/04/25 09:46:49;;;;;;;18.90;10.68;;;;;;;;;;5051409;28;20037;-62
2022/04/25 09:49:20;;;;;;;16.35;10.30;;;;;;;;;;5050997;28;20047;-63
2022/04/25 09:51:59;;;;;;;16.73;9.00;;;;;;;;;;5058445;28;20041;-63
2022/04/25 09:54:25;;;;;;;20.67;10.65;;;;;;;;;;5071206;28;20055;-63
2022/04/25 09:56:52;;;;;;;20.77;11.27;;;;;;;;;;5053607;28;20032;-63
2022/04/25 09:59:21;;;;;;;19.45;11.27;;;;;;;;;;5071093;28;20403;-63
2022/04/25 10:02:02;;;;;;;16.95;10.30;;;;;;;;;;5071446;28;20536;-63
2022/04/25 10:04:32;;;;;;;16.70;9.60;;;;;;;;;;5048943;28;20056;-63
2022/04/25 10:07:00;;;;;;;18.55;10.65;;;;;;;;;;5063303;28;20033;-63
2022/04/25 10:09:29;;;;;;;19.50;10.43;;;;;;;;;;5071423;28;20044;-63
2022/04/25 10:11:57;;;;;;;16.52;9.40;;;;;;;;;;5071674;28;20036;-63
2022/04/25 10:14:24;;;;;;;15.63;9.60;;;;;;;;;;5070558;28;20076;-63
2022/04/25 10:16:50;;;;;;;18.55;11.05;;;;;;;;;;5053850;28;20047;-63
2022/04/25 10:19:17;;;;;;;16.58;10.73;;;;;;;;;;5064987;28;20479;-63
2022/04/25 10:21:43;;;;;;;17.60;10.38;;;;;;;;;;5063185;28;20035;-63
2022/04/25 10:24:10;;;;;;;17.05;11.02;;;;;;;;;;5071019;28;20494;-63
2022/04/25 10:26:36;;;;;;;16.30;9.73;;;;;;;;;;5053817;28;20494;-63
2022/04/25 10:29:07;;;;;;;16.92;10.02;;;;;;;;;;5070875;28;20441;-63
2022/04/25 10:31:41;;;;;;;;;;;;;;;;;;5071879;28;20059;-63
2022/04/25 10:34:07;;;;;;;15.23;10.20;;;;;;;;;;5066287;28;20317;-62
2022/04/25 10:36:39;;;;;;;18.98;10.43;;;;;;;;;;5051348;28;20037;-63
2022/04/25 10:39:22;;;;;;;18.05;10.55;;;;;;;;;;5050979;28;20094;-62
2022/04/25 10:44:45;;;;;;;20.17;9.63;;;;;;;;;;5050960;28;20041;-62
2022/04/25 10:47:12;;;;;;;15.68;9.85;;;;;;;;;;5033663;28;20094;-62
2022/04/25 10:49:42;;;;;;;17.85;9.90;;;;;;;;;;5057488;28;20110;-62
2022/04/25 10:52:26;;;;;;;19.48;10.70;;;;;;;;;;5068624;28;20056;-62
2022/04/25 10:55:13;;;;;;;15.23;10.65;;;;;;;;;;5070355;28;20037;-62
2022/04/25 10:57:59;;;;;;;15.80;10.40;;;;;;;;;;5073524;28;20466;-62
2022/04/25 11:00:40;;;;;;;17.25;10.50;;;;;;;;;;5074724;28;20088;-63
2022/04/25 11:03:07;;;;;;;19.20;11.23;;;;;;;;;;5066163;28;20028;-63
2022/04/25 11:05:37;;;;;;;22.92;12.38;;;;;;;;;;5066352;28;20032;-63
2022/04/25 11:08:24;;;;;;;19.42;12.52;;;;;;;;;;5074461;28;20037;-63
2022/04/25 11:11:10;;;;;;;20.55;12.25;;;;;;;;;;5074552;28;20666;-63
2022/04/25 11:14:01;;;;;;;21.58;13.02;;;;;;;;;;5060653;28;20668;-63
2022/04/25 11:16:28;;;;;;;21.73;12.32;;;;;;;;;;5074461;28;20045;-63
2022/04/25 11:19:11;;;;;;;20.52;12.10;;;;;;;;;;5066961;28;20041;-63
2022/04/25 11:21:43;;;;;;;18.77;12.10;;;;;;;;;;5060615;28;20045;-63
2022/04/25 11:24:28;;;;;;;20.35;10.88;;;;;;;;;;5074437;28;20048;-63
2022/04/25 11:26:55;;;;;;;16.20;11.25;;;;;;;;;;5073860;28;20535;-62
2022/04/25 11:29:21;;;;;;;17.58;11.30;;;;;;;;;;5073395;28;20086;-63
2022/04/25 11:31:47;;;;;;;18.25;11.00;;;;;;;;;;5072214;28;20040;-63
2022/04/25 11:34:14;;;;;;;15.82;9.82;;;;;;;;;;5063277;28;20040;-63
2022/04/25 11:36:40;;;;;;;19.50;10.02;;;;;;;;;;5074319;28;20068;-63
2022/04/25 11:41:51;;;;;;;19.25;9.68;;;;;;;;;;5072051;28;20037;-63
2022/04/25 11:44:17;;;;;;;16.00;9.68;;;;;;;;;;5053872;28;20052;-63
2022/04/25 11:46:44;;;;;;;16.60;10.32;;;;;;;;;;5052963;28;20260;-62
2022/04/25 11:49:10;;;;;;;15.32;8.93;;;;;;;;;;5062885;28;20102;-63
2022/04/25 11:51:38;;;;;;;13.98;9.73;;;;;;;;;;5073968;28;20090;-63
2022/04/25 11:54:04;;;;;;;14.73;9.05;;;;;;;;;;5064605;28;20041;-63
2022/04/25 11:56:32;;;;;;;16.63;9.68;;;;;;;;;;5065268;28;20061;-63
2022/04/25 11:58:58;;;;;;;18.13;10.02;;;;;;;;;;5073196;28;20072;-63
2022/04/25 12:01:33;;;;;;;13.85;9.38;;;;;;;;;;5063958;28;20044;-63
2022/04/25 12:04:18;;;;;;;17.15;9.73;;;;;;;;;;5061846;28;20043;-63
2022/04/25 12:07:00;;;;;;;16.15;9.75;;;;;;;;;;5033629;28;20407;-63
2022/04/25 12:17:53;;;;;;;16.58;9.75;;;;;;;;;;5056245;28;20036;-63
2022/04/25 12:20:29;;;;;;;17.70;10.35;;;;;;;;;;5071696;28;20520;-63
2022/04/25 12:22:59;;;;;;;15.45;10.10;;;;;;;;;;5073410;28;20040;-63
2022/04/25 12:25:25;;;;;;;14.13;9.70;;;;;;;;;;5073061;28;20037;-63
2022/04/25 12:28:10;;;;;;;17.77;10.30;;;;;;;;;;5072868;28;20147;-63
2022/04/25 12:30:50;;;;;;;18.35;9.88;;;;;;;;;;5067254;28;20044;-63
2022/04/25 12:33:17;;;;;;;15.18;9.50;;;;;;;;;;5062953;28;20125;-63
2022/04/25 12:35:44;;;;;;;14.30;10.15;;;;;;;;;;5073023;28;20036;-63
2022/04/25 12:38:11;;;;;;;16.15;10.70;;;;;;;;;;5072603;28;20076;-63
2022/04/25 12:40:56;;;;;;;17.05;10.60;;;;;;;;;;5073166;28;20040;-62
2022/04/25 12:43:54;;;;;;;16.02;10.70;;;;;;;;;;5040275;28;20049;-63
2022/04/25 12:46:37;;;;;;;19.52;11.00;;;;;;;;;;5005487;28;20482;-63
2022/04/25 12:49:05;;;;;;;16.92;11.50;;;;;;;;;;5058871;28;20043;-63
2022/04/25 12:51:40;;;;;;;18.80;11.80;;;;;;;;;;5060132;28;20094;-63
2022/04/25 12:54:07;;;;;;;19.48;11.45;;;;;;;;;;5034912;28;20045;-63
2022/04/25 12:56:34;;;;;;;16.67;11.80;;;;;;;;;;5034629;28;20041;-63
2022/04/25 12:59:00;;;;;;;15.77;11.85;;;;;;;;;;5050950;28;20033;-63
2022/04/25 13:01:31;;;;;;;19.10;12.13;;;;;;;;;;5061467;28;20071;-63
2022/04/25 13:04:07;;;;;;;18.13;12.10;;;;;;;;;;5064092;28;20120;-63
2022/04/25 13:06:35;;;;;;;22.48;13.02;;;;;;;;;;5072061;28;20090;-63
2022/04/25 13:09:01;;;;;;;18.83;12.25;;;;;;;;;;5072160;28;20442;-63
2022/04/25 13:11:27;;;;;;;18.00;11.60;;;;;;;;;;5071765;28;20131;-63
2022/04/25 13:13:53;;;;;;;20.25;12.13;;;;;;;;;;5072403;28;20123;-63
2022/04/25 13:16:19;;;;;;;23.08;12.80;;;;;;;;;;5062750;28;20499;-63
2022/04/25 13:18:45;;;;;;;15.43;11.98;;;;;;;;;;5045304;28;20044;-63
2022/04/25 13:21:13;;;;;;;18.05;11.45;;;;;;;;;;5054270;28;20067;-63
2022/04/25 13:23:39;;;;;;;19.73;12.23;;;;;;;;;;5071583;28;20120;-63
2022/04/25 13:26:05;;;;;;;18.95;12.48;;;;;;;;;;5071640;28;20127;-63
2022/04/25 13:28:31;;;;;;;20.00;13.20;;;;;;;;;;5071760;28;20040;-63
2022/04/25 13:30:57;;;;;;;19.45;12.13;;;;;;;;;;5068947;28;20047;-63
2022/04/25 13:33:23;;;;;;;19.33;12.35;;;;;;;;;;5063013;28;20032;-63
2022/04/25 13:35:49;;;;;;;19.15;13.05;;;;;;;;;;5071637;28;20036;-63
2022/04/25 13:38:15;;;;;;;19.33;13.27;;;;;;;;;;5054108;28;20533;-63
2022/04/25 13:40:41;;;;;;;20.38;13.48;;;;;;;;;;5070798;28;20047;-63
2022/04/25 13:43:08;;;;;;;19.48;12.15;;;;;;;;;;5059503;28;20043;-63
2022/04/25 13:45:35;;;;;;;17.83;12.30;;;;;;;;;;5055492;28;20032;-63
2022/04/25 13:48:01;;;;;;;22.63;12.77;;;;;;;;;;5062916;28;20035;-63
2022/04/25 13:50:27;;;;;;;19.58;13.02;;;;;;;;;;5071704;28;20086;-63
2022/04/25 13:52:54;;;;;;;19.95;13.00;;;;;;;;;;5071500;28;20091;-62
2022/04/25 13:55:20;;;;;;;21.30;13.68;;;;;;;;;;5071453;28;20451;-62
2022/04/25 13:57:46;;;;;;;21.85;13.68;;;;;;;;;;5071363;28;20036;-63
2022/04/25 14:00:13;;;;;;;19.92;13.43;;;;;;;;;;5066584;28;20036;-63
2022/04/25 14:05:24;;;;;;;20.23;13.70;;;;;;;;;;5051573;28;20041;-63
2022/04/25 14:07:50;;;;;;;20.10;13.05;;;;;;;;;;5050827;28;20140;-63
2022/04/25 14:10:17;;;;;;;19.88;13.63;;;;;;;;;;5051458;28;20136;-63
2022/04/25 14:12:43;;;;;;;22.23;14.70;;;;;;;;;;5050870;28;20041;-63
2022/04/25 14:15:09;;;;;;;24.10;15.20;;;;;;;;;;5059346;28;20403;-63
2022/04/25 14:17:35;;;;;;;25.27;14.82;;;;;;;;;;5071057;28;20054;-63
2022/04/25 14:20:02;;;;;;;24.98;15.38;;;;;;;;;;5071329;28;20542;-63
2022/04/25 14:22:29;;;;;;;21.25;14.82;;;;;;;;;;5057270;28;20044;-63
2022/04/25 14:24:54;;;;;;;24.02;15.45;;;;;;;;;;5045374;28;20482;-63
2022/04/25 14:27:21;;;;;;;22.30;15.38;;;;;;;;;;5071555;28;20036;-63
2022/04/25 14:29:46;;;;;;;22.65;15.73;;;;;;;;;;5071407;28;20100;-63
2022/04/25 14:32:13;;;;;;;23.58;15.68;;;;;;;;;;5075077;28;20115;-63
2022/04/25 14:34:39;;;;;;;21.73;16.42;;;;;;;;;;5075082;28;20573;-63
2022/04/25 14:37:05;;;;;;;26.08;16.90;;;;;;;;;;5065454;28;20075;-63
2022/04/25 14:39:33;;;;;;;24.90;16.45;;;;;;;;;;5066678;28;20025;-63
2022/04/25 14:41:59;;;;;;;23.40;16.73;;;;;;;;;;5072022;28;20037;-63
2022/04/25 14:44:25;;;;;;;23.98;16.92;;;;;;;;;;5055170;28;20407;-63
2022/04/25 14:46:52;;;;;;;24.33;16.25;;;;;;;;;;5054531;28;20510;-63
2022/04/25 14:54:20;;;;;;;25.42;15.85;;;;;;;;;;5054617;28;20552;-63
2022/04/25 14:54:49;;;;;;;22.15;16.13;;;;;;;;;;5069376;28;20086;-63
2022/04/25 14:57:15;;;;;;;25.77;16.95;;;;;;;;;;5075230;28;20048;-63
2022/04/25 14:59:41;;;;;;;23.25;16.30;;;;;;;;;;5074433;28;20036;-63
2022/04/25 15:02:07;;;;;;;23.15;16.35;;;;;;;;;;5074782;28;20040;-63
2022/04/25 15:04:33;;;;;;;21.50;16.35;;;;;;;;;;5074615;28;20102;-63
2022/04/25 15:06:59;;;;;;;23.50;16.42;;;;;;;;;;5063699;28;20043;-63
2022/04/25 15:09:25;;;;;;;23.20;16.33;;;;;;;;;;5066119;28;20403;-63
2022/04/25 15:11:51;;;;;;;25.20;17.05;;;;;;;;;;5074646;28;20044;-63
2022/04/25 15:14:17;;;;;;;21.42;15.57;;;;;;;;;;5056658;28;20052;-63
2022/04/25 15:16:43;;;;;;;27.55;17.15;;;;;;;;;;5074626;28;20478;-63
2022/04/25 15:19:09;;;;;;;31.40;17.08;;;;;;;;;;5073890;28;20068;-63